Bookmark and Share
Track history (hours):
 

Green Lofoten

Last reported at 2014-Apr-17 03:33 UTC. Time now 2014-Apr-17 03:59 UTC.
Position N 57°41' E 010°47'.

Length 98 m; draft 4.9 m.

Type: Cargo ship. MMSI: 212857000.

NotesDate/timePositionNaut miles runAvg speedWind from/ knotsBaromVisibWave heightAir tempDewpointWater temp
2014-Apr-17 03:33N 57°41' E 010°47'1312.9
2014-Apr-17 02:33N 57°36' E 011°10'1313.4
2014-Apr-17 01:33N 57°26' E 011°27'1413.9
2014-Apr-17 00:33N 57°13' E 011°36'1413.9
2014-Apr-16 23:33N 57°00' E 011°44'1413.6
2014-Apr-16 22:33N 56°47' E 011°52'1413.6
2014-Apr-16 21:32N 56°34' E 011°59'1312.9
2014-Apr-16 20:32N 56°21' E 012°04'1211.8
2014-Apr-16 19:33N 56°13' E 012°18'1313.3
2014-Apr-16 18:33N 56°05' E 012°37'1313.0
2014-Apr-16 17:33N 55°52' E 012°41'1414.3
2014-Apr-16 16:34N 55°38' E 012°42'1414.0
2014-Apr-16 15:34N 55°24' E 012°41'1211.7
2014-Apr-16 14:34N 55°16' E 012°56'1413.9
2014-Apr-16 13:34N 55°16' E 013°21'1414.1
2014-Apr-16 12:34N 55°14' E 013°45'1514.8
2014-Apr-16 11:34N 55°14' E 014°11'1413.6
2014-Apr-16 10:34N 55°22' E 014°30'1414.2
2014-Apr-16 09:34N 55°31' E 014°50'1514.7
2014-Apr-16 08:34N 55°38' E 015°13'1514.7
2014-Apr-16 07:33N 55°45' E 015°36'1514.7
2014-Apr-16 06:33N 55°53' E 015°58'1514.7
2014-Apr-16 05:34N 56°00' E 016°20'31413.6
2014-Apr-15 06:30N 59°38' E 023°24'1414.7
2014-Apr-15 05:34N 59°42' E 023°50'2914.5
2014-Apr-15 03:34N 59°49' E 024°46'5714.2
2014-Apr-14 23:32N 60°01' E 026°37'10812.1
2014-Apr-14 14:34N 59°52' E 030°12'2 0.0
2014-Apr-12 13:31N 59°53' E 030°09'15811.9
2014-Apr-12 00:17N 59°47' E 024°55'1115.3
2014-Apr-11 23:33N 59°45' E 024°34'2215.2
2014-Apr-11 22:06N 59°38' E 023°52'915.3
2014-Apr-11 21:32N 59°35' E 023°35'31715.1
2014-Apr-11 00:32N 55°56' E 016°26'1715.3
2014-Apr-10 23:24N 55°48' E 015°59'1715.5
2014-Apr-10 22:16N 55°40' E 015°32'1215.4
2014-Apr-10 21:29N 55°34' E 015°13'1415.5
2014-Apr-10 20:33N 55°27' E 014°51'1515.2
2014-Apr-10 19:33N 55°17' E 014°30'1413.9
2014-Apr-10 18:33N 55°10' E 014°10'1515.3
2014-Apr-10 17:33N 55°12' E 013°44'1515.1
2014-Apr-10 16:33N 55°13' E 013°17'1515.2
2014-Apr-10 15:33N 55°15' E 012°51'1211.7
2014-Apr-10 14:34N 55°25' E 012°40'1312.6
2014-Apr-10 13:33N 55°36' E 012°52'1211.8
2014-Apr-10 12:33N 55°47' E 012°47'1514.6
2014-Apr-10 11:33N 56°01' E 012°40'1414.4
2014-Apr-10 10:33N 56°11' E 012°20'1514.7
2014-Apr-10 09:33N 56°21' E 012°01'1615.5
2014-Apr-10 08:32N 56°37' E 011°55'1515.1
2014-Apr-10 07:33N 56°51' E 011°48'1815.1
2014-Apr-10 06:23N 57°08' E 011°38'1315.4
2014-Apr-10 05:33N 57°20' E 011°30'1514.9
2014-Apr-10 04:33N 57°32' E 011°14'1514.9
2014-Apr-10 03:33N 57°42' E 010°54'1414.3
2014-Apr-10 02:33N 57°48' E 010°29'1515.4
2014-Apr-10 01:33N 57°49' E 010°00'12414.8
2014-Apr-09 17:09N 58°00' E 006°07'814.1
2014-Apr-09 16:33N 58°02' E 005°52'1413.8
2014-Apr-09 15:33N 58°11' E 005°32'39214.4
2014-Apr-08 12:20N 61°48' W 005°20'10 5.7
2014-Apr-08 10:33N 61°51' W 005°41'1414.4
2014-Apr-08 09:33N 61°56' W 006°09'1414.1
2014-Apr-08 08:33N 62°02' W 006°37'6 5.8
2014-Apr-08 07:32N 62°07' W 006°44'0 0.0
2014-Apr-08 06:32N 62°07' W 006°44'0 0.0
2014-Apr-08 05:32N 62°07' W 006°44'0 0.0
2014-Apr-08 04:32N 62°07' W 006°44'0 0.0
2014-Apr-08 03:32N 62°07' W 006°44'0 0.0
2014-Apr-08 02:32N 62°07' W 006°44'0 0.0
2014-Apr-08 01:32N 62°07' W 006°44'0 0.0
2014-Apr-08 00:32N 62°07' W 006°44'0 0.0
2014-Apr-07 23:32N 62°07' W 006°44'0 0.0
2014-Apr-07 22:32N 62°07' W 006°44'0 0.0
2014-Apr-07 21:32N 62°07' W 006°44'0 0.0
2014-Apr-07 20:32N 62°07' W 006°44'0 0.0
2014-Apr-07 19:32N 62°07' W 006°44'0 0.0
2014-Apr-07 17:29N 62°07' W 006°44'0 0.0
2014-Apr-07 16:32N 62°07' W 006°44'0 0.0
2014-Apr-07 15:32N 62°07' W 006°44'0 0.0
2014-Apr-07 14:32N 62°07' W 006°44'0 0.0
2014-Apr-07 13:32N 62°07' W 006°44'0 0.0
2014-Apr-07 12:29N 62°07' W 006°44'0 0.0
2014-Apr-07 11:32N 62°07' W 006°44'0 0.0
2014-Apr-07 10:32N 62°07' W 006°44'0 0.0
2014-Apr-07 09:32N 62°07' W 006°44'0 0.0
2014-Apr-07 08:32N 62°07' W 006°44'0 0.0
2014-Apr-07 07:32N 62°07' W 006°44'0 0.0
2014-Apr-07 06:32N 62°07' W 006°44'0 0.0
2014-Apr-07 05:32N 62°07' W 006°44'0 0.0
2014-Apr-07 04:32N 62°07' W 006°44'  

Dump ship's entire track history

sailing weather and tide predictions

Green Lofoten — P3MG8 — position and weather